MROC/SJO METAR and TAF weather

Enter ICAO airport designator
Station Type Date Time Source
MROC METAR 2019/02/22 22:00 UTC NOAA

MROC 222200Z 10013KT 080V140 9999 FEW040 28/16 A2994 NOSIG


Station Type Date Time Source
MROC Decoded METAR 2019/02/22 22:00 UTC NOAA

Juan Santamaria, Costa Rica (MROC) 10-00N 084-13W 939M
Feb 22, 2019 - 05:00 PM EST / 2019.02.22 2200 UTC
Wind: from the E (100 degrees) at 15 MPH (13 KT) (direction variable):0
Visibility: greater than 7 mile(s):0
Sky conditions: mostly clear
Temperature: 82 F (28 C)
Dew Point: 60 F (16 C)
Relative Humidity: 48%
Pressure (altimeter): 29.94 in. Hg (1013 hPa)
ob: MROC 222200Z 10013KT 080V140 9999 FEW040 28/16 A2994 NOSIG
cycle: 22

Station Type Date Time Source
MROC TAF 2019/02/22 18:06 UTC NOAA

TAF MROC 221700Z 2218/2318 09011KT 9999 FEW045 TX30/2319Z TN19/2310Z
TEMPO 2218/2221 22007KT


Example: see airport list